createdAt,value
2022-11-05T00:01:58.736Z,100730.34
2022-11-05T00:04:43.739Z,100716.78
2022-11-05T00:07:31.256Z,100717.06
2022-11-05T00:10:01.865Z,100720.47
2022-11-05T00:12:48.511Z,100718.38
2022-11-05T00:15:33.972Z,100723.09
2022-11-05T00:18:01.624Z,100723.78
2022-11-05T00:20:29.308Z,100726.75
2022-11-05T00:23:20.720Z,100735.56
2022-11-05T00:25:55.738Z,100737.03
2022-11-05T00:28:24.925Z,100739.38
2022-11-05T00:30:52.757Z,100736.91
2022-11-05T00:33:20.434Z,100736.25
2022-11-05T00:35:48.067Z,100739.94
2022-11-05T00:38:15.755Z,100727.44
2022-11-05T00:40:43.415Z,100729.00
2022-11-05T00:43:28.719Z,100726.75
2022-11-05T00:45:57.888Z,100747.75
2022-11-05T00:48:43.081Z,100753.00
2022-11-05T00:51:10.904Z,100756.34
2022-11-05T00:53:38.590Z,100762.69
2022-11-05T00:56:06.530Z,100771.69
2022-11-05T00:58:34.227Z,100778.03
2022-11-05T01:01:03.649Z,100774.19
2022-11-05T01:03:33.452Z,100774.84
2022-11-05T01:06:08.758Z,100774.97
2022-11-05T01:08:36.634Z,100774.56
2022-11-05T01:11:10.235Z,100762.97
2022-11-05T01:13:38.077Z,100766.81
2022-11-05T01:16:09.543Z,100769.66
2022-11-05T01:18:37.873Z,100781.22
2022-11-05T01:21:11.912Z,100775.81
2022-11-05T01:23:39.567Z,100778.06
2022-11-05T01:26:07.133Z,100774.78
2022-11-05T01:28:34.645Z,100780.16
2022-11-05T01:31:02.150Z,100787.75
2022-11-05T01:33:30.984Z,100770.44
2022-11-05T01:35:58.424Z,100780.59
2022-11-05T01:38:25.923Z,100776.88
2022-11-05T01:40:53.622Z,100786.25
2022-11-05T01:43:23.264Z,100789.16
2022-11-05T01:45:51.287Z,100781.59
2022-11-05T01:48:19.734Z,100783.72
2022-11-05T01:50:49.318Z,100779.78
2022-11-05T01:53:18.724Z,100781.25
2022-11-05T01:55:47.692Z,100781.47
2022-11-05T01:58:15.796Z,100780.72
2022-11-05T02:00:43.312Z,100766.38
2022-11-05T02:03:11.054Z,100777.78
2022-11-05T02:05:38.976Z,100775.56
2022-11-05T02:08:07.916Z,100773.81
2022-11-05T02:10:35.379Z,100779.31
2022-11-05T02:13:03.710Z,100774.44
2022-11-05T02:15:34.838Z,100775.50
2022-11-05T02:18:05.723Z,100767.88
2022-11-05T02:20:34.090Z,100769.69
2022-11-05T02:23:34.711Z,100780.19
2022-11-05T02:26:11.859Z,100772.31
2022-11-05T02:28:45.872Z,100776.94
2022-11-05T02:31:15.013Z,100769.28
2022-11-05T02:33:42.962Z,100777.75
2022-11-05T02:36:15.535Z,100771.25
2022-11-05T02:38:44.134Z,100771.75
2022-11-05T02:41:14.018Z,100778.44
2022-11-05T02:43:45.783Z,100769.88
2022-11-05T02:46:15.995Z,100773.84
2022-11-05T02:48:44.858Z,100784.34
2022-11-05T02:51:13.483Z,100780.44
2022-11-05T02:53:43.017Z,100787.09
2022-11-05T02:56:10.943Z,100787.75
2022-11-05T02:58:38.424Z,100780.06
2022-11-05T03:01:07.012Z,100780.78
2022-11-05T03:03:36.565Z,100786.47
2022-11-05T03:06:22.004Z,100785.81
2022-11-05T03:08:57.109Z,100775.97
2022-11-05T03:11:24.893Z,100773.59
2022-11-05T03:13:53.434Z,100776.31
2022-11-05T03:16:22.590Z,100764.84
2022-11-05T03:18:55.026Z,100773.72
2022-11-05T03:21:22.987Z,100770.22
2022-11-05T03:23:50.953Z,100768.19
2022-11-05T03:26:19.694Z,100778.84
2022-11-05T03:28:48.881Z,100779.19
2022-11-05T03:31:16.360Z,100771.28
2022-11-05T03:33:44.103Z,100764.03
2022-11-05T03:36:16.087Z,100781.66
2022-11-05T03:38:44.169Z,100783.66
2022-11-05T03:41:12.440Z,100785.31
2022-11-05T03:43:41.342Z,100776.16
2022-11-05T03:46:09.232Z,100781.69
2022-11-05T03:48:37.743Z,100782.22
2022-11-05T03:51:06.254Z,100781.31
2022-11-05T03:53:36.194Z,100777.22
2022-11-05T03:56:04.923Z,100779.00
2022-11-05T03:58:32.462Z,100781.34
2022-11-05T04:01:00.221Z,100785.44
2022-11-05T04:03:27.699Z,100780.91
2022-11-05T04:06:09.115Z,100791.16
2022-11-05T04:08:55.686Z,100791.03
2022-11-05T04:11:40.707Z,100786.38
2022-11-05T04:14:08.194Z,100791.16
2022-11-05T04:16:53.343Z,100796.50
2022-11-05T04:19:41.609Z,100807.97
2022-11-05T04:22:26.475Z,100805.47
2022-11-05T04:24:55.336Z,100797.13
2022-11-05T04:27:22.794Z,100797.81
2022-11-05T04:30:07.604Z,100809.56
2022-11-05T04:32:35.058Z,100807.63
2022-11-05T04:35:02.517Z,100806.75
2022-11-05T04:37:29.998Z,100802.56
2022-11-05T04:39:58.831Z,100802.31
2022-11-05T04:42:26.315Z,100812.13
2022-11-05T04:44:53.787Z,100804.63
2022-11-05T04:47:21.239Z,100810.16
2022-11-05T04:49:48.800Z,100812.53
2022-11-05T04:52:17.876Z,100815.66
2022-11-05T04:54:45.347Z,100815.91
2022-11-05T04:57:14.147Z,100813.56
2022-11-05T04:59:41.744Z,100804.75
2022-11-05T05:02:09.478Z,100818.63
2022-11-05T05:04:37.132Z,100821.13
2022-11-05T05:07:04.779Z,100822.13
2022-11-05T05:09:32.537Z,100834.06
2022-11-05T05:12:00.182Z,100831.81
2022-11-05T05:14:29.152Z,100825.53
2022-11-05T05:16:56.799Z,100823.81
2022-11-05T05:19:25.180Z,100831.63
2022-11-05T05:21:51.904Z,100829.78
2022-11-05T05:24:21.100Z,100828.91
2022-11-05T05:26:50.526Z,100836.75
2022-11-05T05:29:18.441Z,100833.38
2022-11-05T05:31:47.276Z,100832.81
2022-11-05T05:34:15.101Z,100839.38
2022-11-05T05:36:42.662Z,100836.63
2022-11-05T05:39:10.805Z,100835.22
2022-11-05T05:41:38.315Z,100840.22
2022-11-05T05:44:05.875Z,100836.34
2022-11-05T05:46:33.318Z,100836.47
2022-11-05T05:49:03.049Z,100831.41
2022-11-05T05:51:32.951Z,100837.88
2022-11-05T05:54:00.438Z,100840.88
2022-11-05T05:56:27.906Z,100832.75
2022-11-05T05:58:55.728Z,100839.94
2022-11-05T06:01:23.226Z,100844.50
2022-11-05T06:03:50.738Z,100845.53
2022-11-05T06:06:20.978Z,100846.22
2022-11-05T06:08:48.857Z,100855.63
2022-11-05T06:11:16.395Z,100858.06
2022-11-05T06:13:43.889Z,100851.56
2022-11-05T06:16:11.378Z,100864.91
2022-11-05T06:18:38.959Z,100857.44
2022-11-05T06:21:06.988Z,100856.88
2022-11-05T06:23:36.419Z,100874.91
2022-11-05T06:26:03.946Z,100876.03
2022-11-05T06:28:31.452Z,100876.38
2022-11-05T06:30:58.988Z,100881.38
2022-11-05T06:33:26.788Z,100877.28
2022-11-05T06:35:54.322Z,100882.66
2022-11-05T06:38:21.951Z,100882.78
2022-11-05T06:40:50.792Z,100881.75
2022-11-05T06:43:18.273Z,100890.09
2022-11-05T06:45:45.711Z,100883.75
2022-11-05T06:48:13.208Z,100906.22
2022-11-05T06:50:44.201Z,100896.25
2022-11-05T06:53:12.357Z,100891.22
2022-11-05T06:55:40.113Z,100899.31
2022-11-05T06:58:08.963Z,100908.25
2022-11-05T07:00:36.512Z,100906.19
2022-11-05T07:03:04.608Z,100917.06
2022-11-05T07:05:32.236Z,100917.97
2022-11-05T07:07:59.691Z,100923.56
2022-11-05T07:10:27.150Z,100917.47
2022-11-05T07:12:54.627Z,100911.69
2022-11-05T07:15:23.446Z,100923.16
2022-11-05T07:17:50.898Z,100927.13
2022-11-05T07:20:18.536Z,100927.72
2022-11-05T07:22:45.978Z,100922.38
2022-11-05T07:25:13.452Z,100915.97
2022-11-05T07:27:41.035Z,100927.53
2022-11-05T07:30:09.330Z,100919.38
2022-11-05T07:32:41.074Z,100919.28
2022-11-05T07:35:09.512Z,100923.69
2022-11-05T07:37:42.892Z,100924.88
2022-11-05T07:40:11.175Z,100923.75
2022-11-05T07:42:38.645Z,100926.38
2022-11-05T07:45:06.631Z,100937.25
2022-11-05T07:47:34.080Z,100936.63
2022-11-05T07:50:02.946Z,100931.38
2022-11-05T07:52:30.402Z,100927.69
2022-11-05T07:54:57.890Z,100935.97
2022-11-05T07:57:25.467Z,100946.66
2022-11-05T07:59:52.909Z,100937.59
2022-11-05T08:02:20.627Z,100947.47
2022-11-05T08:04:48.284Z,100953.75
2022-11-05T08:07:17.152Z,100963.00
2022-11-05T08:09:44.637Z,100958.13
2022-11-05T08:12:12.124Z,100956.81
2022-11-05T08:14:39.606Z,100954.56
2022-11-05T08:17:07.119Z,100956.25
2022-11-05T08:19:34.564Z,100940.13
2022-11-05T08:22:02.050Z,100960.25
2022-11-05T08:24:30.918Z,100966.25
2022-11-05T08:26:58.397Z,100954.19
2022-11-05T08:29:26.025Z,100953.34
2022-11-05T08:31:53.559Z,100965.31
2022-11-05T08:34:21.188Z,100956.31
2022-11-05T08:36:48.675Z,100954.31
2022-11-05T08:39:18.699Z,100959.31
2022-11-05T08:41:47.963Z,100965.03
2022-11-05T08:44:15.641Z,100979.28
2022-11-05T08:46:43.104Z,100958.53
2022-11-05T08:49:10.734Z,100970.88
2022-11-05T08:51:38.429Z,100965.47
2022-11-05T08:54:06.275Z,100968.00
2022-11-05T08:56:33.775Z,100974.19
2022-11-05T08:59:02.641Z,100954.31
2022-11-05T09:01:30.262Z,100961.22
2022-11-05T09:03:57.831Z,100965.00
2022-11-05T09:06:25.343Z,100949.19
2022-11-05T09:08:52.840Z,100969.19
2022-11-05T09:11:20.396Z,100954.22
2022-11-05T09:13:47.851Z,100971.34
2022-11-05T09:16:17.919Z,100971.50
2022-11-05T09:18:45.352Z,100983.22
2022-11-05T09:21:12.840Z,100981.94
2022-11-05T09:23:40.391Z,100981.59
2022-11-05T09:26:07.872Z,100980.16
2022-11-05T09:28:35.340Z,100994.38
2022-11-05T09:31:05.839Z,100978.81
2022-11-05T09:33:35.363Z,100982.53
2022-11-05T09:36:02.983Z,100982.19
2022-11-05T09:38:30.668Z,100988.78
2022-11-05T09:40:59.020Z,100989.66
2022-11-05T09:43:31.651Z,100990.66
2022-11-05T09:45:59.620Z,100985.22
2022-11-05T09:48:28.927Z,100990.16
2022-11-05T09:50:58.211Z,100998.31
2022-11-05T09:53:25.719Z,100990.84
2022-11-05T09:55:54.516Z,100998.28
2022-11-05T09:58:28.555Z,100988.84
2022-11-05T10:00:56.660Z,100991.22
2022-11-05T10:03:24.531Z,100992.44
2022-11-05T10:05:52.215Z,100999.88
2022-11-05T10:08:23.272Z,101008.28
2022-11-05T10:10:51.667Z,100996.50
2022-11-05T10:13:21.836Z,100996.88
2022-11-05T10:15:51.966Z,101009.41
2022-11-05T10:18:20.459Z,101002.53
2022-11-05T10:20:48.009Z,101002.69
2022-11-05T10:23:16.384Z,101004.47
2022-11-05T10:25:46.641Z,101007.16
2022-11-05T10:28:15.910Z,101011.00
2022-11-05T10:30:43.668Z,101011.50
2022-11-05T10:33:11.633Z,101001.88
2022-11-05T10:35:41.620Z,101002.06
2022-11-05T10:38:10.065Z,100995.50
2022-11-05T10:40:39.113Z,101010.38
2022-11-05T10:43:09.566Z,100997.53
2022-11-05T10:45:40.244Z,100998.03
2022-11-05T10:48:20.518Z,100999.06
2022-11-05T10:50:47.996Z,101003.72
2022-11-05T10:53:16.287Z,100996.31
2022-11-05T10:55:44.733Z,101014.41
2022-11-05T10:58:28.943Z,100998.16
2022-11-05T11:01:04.053Z,101019.69
2022-11-05T11:03:33.601Z,101003.16
2022-11-05T11:06:01.584Z,101007.97
2022-11-05T11:08:29.496Z,101017.56
2022-11-05T11:10:58.727Z,101012.84
2022-11-05T11:13:29.172Z,101010.88
2022-11-05T11:15:56.785Z,100999.94
2022-11-05T11:18:26.543Z,101010.69
2022-11-05T11:20:54.329Z,100999.88
2022-11-05T11:23:21.860Z,101006.38
2022-11-05T11:25:51.929Z,100994.16
2022-11-05T11:28:21.253Z,101003.88
2022-11-05T11:30:52.058Z,101005.88
2022-11-05T11:33:20.935Z,101002.56
2022-11-05T11:35:48.444Z,101017.75
2022-11-05T11:38:16.007Z,101011.13
2022-11-05T11:40:43.626Z,101010.66
2022-11-05T11:43:15.011Z,101014.59
2022-11-05T11:45:45.516Z,101010.81
2022-11-05T11:48:15.565Z,101009.59
2022-11-05T11:50:43.647Z,100994.06
2022-11-05T11:53:18.035Z,101003.44
2022-11-05T11:55:56.238Z,101003.28
2022-11-05T11:58:25.197Z,100995.38
2022-11-05T12:00:58.367Z,101001.91
2022-11-05T12:03:28.780Z,100988.94
2022-11-05T12:05:56.628Z,100985.88
2022-11-05T12:08:28.709Z,101001.56
2022-11-05T12:10:58.648Z,100994.66
2022-11-05T12:13:49.683Z,100990.22
2022-11-05T12:16:20.807Z,101000.03
2022-11-05T12:18:50.346Z,100997.22
2022-11-05T12:21:40.772Z,101005.06
2022-11-05T12:24:11.634Z,100986.63
2022-11-05T12:26:42.002Z,101000.59
2022-11-05T12:29:19.312Z,100996.28
2022-11-05T12:31:49.841Z,100987.53
2022-11-05T12:34:26.427Z,100980.56
2022-11-05T12:37:10.856Z,100977.19
2022-11-05T12:39:42.887Z,100985.53
2022-11-05T12:42:13.088Z,100986.59
2022-11-05T12:44:44.687Z,100987.81
2022-11-05T12:47:18.875Z,100977.16
2022-11-05T12:49:54.568Z,100977.00
2022-11-05T12:52:36.269Z,100981.81
2022-11-05T12:55:05.192Z,100981.91
2022-11-05T12:57:33.344Z,100973.72
2022-11-05T13:00:03.399Z,100969.09
2022-11-05T13:02:31.728Z,100958.91
2022-11-05T13:05:02.266Z,100980.75
2022-11-05T13:07:29.947Z,100977.16
2022-11-05T13:09:58.577Z,100982.44
2022-11-05T13:12:27.460Z,100958.06
2022-11-05T13:14:56.058Z,100980.78
2022-11-05T13:17:24.223Z,100956.72
2022-11-05T13:19:52.629Z,100978.66
2022-11-05T13:22:24.687Z,100962.97
2022-11-05T13:24:52.773Z,100956.47
2022-11-05T13:27:29.015Z,100973.22
2022-11-05T13:29:57.647Z,100965.03
2022-11-05T13:32:28.437Z,100970.56
2022-11-05T13:34:56.365Z,100957.47
2022-11-05T13:37:48.418Z,100971.66
2022-11-05T13:40:16.348Z,100971.22
2022-11-05T13:42:48.259Z,100964.09
2022-11-05T13:45:20.720Z,100952.94
2022-11-05T13:47:57.625Z,100960.53
2022-11-05T13:50:34.435Z,100960.72
2022-11-05T13:53:10.899Z,100956.91
2022-11-05T13:55:49.762Z,100947.38
2022-11-05T13:58:32.106Z,100943.50
2022-11-05T14:01:02.684Z,100938.28
2022-11-05T14:03:30.242Z,100938.00
2022-11-05T14:06:00.267Z,100946.34
2022-11-05T14:08:29.175Z,100937.53
2022-11-05T14:11:00.428Z,100938.59
2022-11-05T14:13:28.573Z,100921.19
2022-11-05T14:15:57.249Z,100924.22
2022-11-05T14:18:36.744Z,100917.97
2022-11-05T14:21:04.931Z,100925.16
2022-11-05T14:23:41.201Z,100910.03
2022-11-05T14:26:23.306Z,100908.34
2022-11-05T14:28:51.779Z,100911.94
2022-11-05T14:31:47.230Z,100913.06
2022-11-05T14:34:20.266Z,100901.53
2022-11-05T14:36:47.748Z,100900.69
2022-11-05T14:39:25.196Z,100898.94
2022-11-05T14:41:54.696Z,100893.09
2022-11-05T14:44:22.127Z,100907.25
2022-11-05T14:46:50.359Z,100906.53
2022-11-05T14:49:18.228Z,100900.88
2022-11-05T14:51:46.159Z,100894.91
2022-11-05T14:54:18.096Z,100906.44
2022-11-05T14:56:48.571Z,100901.88
2022-11-05T14:59:36.560Z,100906.66
2022-11-05T15:02:04.594Z,100901.75
2022-11-05T15:04:32.485Z,100898.56
2022-11-05T15:07:18.537Z,100897.63
2022-11-05T15:09:47.296Z,100908.28
2022-11-05T15:12:17.771Z,100918.22
2022-11-05T15:14:51.793Z,100904.91
2022-11-05T15:17:20.916Z,100912.31
2022-11-05T15:19:48.399Z,100920.19
2022-11-05T15:22:23.053Z,100911.84
2022-11-05T15:24:50.506Z,100910.31
2022-11-05T15:27:19.182Z,100908.63
2022-11-05T15:29:46.616Z,100901.13
2022-11-05T15:32:17.453Z,100908.03
2022-11-05T15:34:51.264Z,100912.03
2022-11-05T15:37:22.963Z,100914.41
2022-11-05T15:39:50.994Z,100906.41
2022-11-05T15:42:22.109Z,100901.47
2022-11-05T15:44:50.018Z,100903.34
2022-11-05T15:47:20.372Z,100898.41
2022-11-05T15:49:48.648Z,100908.09
2022-11-05T15:52:16.581Z,100911.75
2022-11-05T15:54:44.367Z,100905.22
2022-11-05T15:57:20.424Z,100901.13
2022-11-05T15:59:48.032Z,100914.16
2022-11-05T16:02:33.077Z,100913.22
2022-11-05T16:05:00.920Z,100911.59
2022-11-05T16:07:28.363Z,100917.19
2022-11-05T16:09:56.889Z,100921.47
2022-11-05T16:12:26.439Z,100923.19
2022-11-05T16:14:57.778Z,100921.78
2022-11-05T16:17:26.000Z,100913.91
2022-11-05T16:19:54.995Z,100909.66
2022-11-05T16:22:22.508Z,100915.44
2022-11-05T16:24:50.031Z,100915.19
2022-11-05T16:27:19.847Z,100916.97
2022-11-05T16:29:48.714Z,100909.47
2022-11-05T16:32:17.400Z,100914.00
2022-11-05T16:34:46.786Z,100903.91
2022-11-05T16:37:16.217Z,100913.13
2022-11-05T16:39:43.732Z,100916.81
2022-11-05T16:42:37.876Z,100918.69
2022-11-05T16:45:05.952Z,100920.03
2022-11-05T16:47:33.401Z,100921.66
2022-11-05T16:50:00.835Z,100923.94
2022-11-05T16:52:29.886Z,100914.34
2022-11-05T16:54:57.331Z,100907.09
2022-11-05T16:57:25.515Z,100904.78
2022-11-05T16:59:53.348Z,100907.91
2022-11-05T17:02:20.962Z,100908.28
2022-11-05T17:04:48.500Z,100905.91
2022-11-05T17:07:15.943Z,100903.00
2022-11-05T17:09:44.764Z,100893.38
2022-11-05T17:12:12.419Z,100896.63
2022-11-05T17:14:39.906Z,100901.38
2022-11-05T17:17:07.417Z,100898.41
2022-11-05T17:19:34.886Z,100882.66
2022-11-05T17:22:02.329Z,100897.38
2022-11-05T17:24:29.820Z,100893.56
2022-11-05T17:26:58.635Z,100890.50
2022-11-05T17:29:26.112Z,100901.72
2022-11-05T17:31:53.597Z,100897.38
2022-11-05T17:34:21.034Z,100894.84
2022-11-05T17:36:48.533Z,100885.13
2022-11-05T17:39:16.185Z,100891.44
2022-11-05T17:41:44.459Z,100885.47
2022-11-05T17:44:13.276Z,100903.53
2022-11-05T17:46:40.760Z,100897.72
2022-11-05T17:49:08.310Z,100895.78
2022-11-05T17:51:35.815Z,100897.63
2022-11-05T17:54:04.036Z,100889.56
2022-11-05T17:56:34.957Z,100903.69
2022-11-05T17:59:04.542Z,100897.56
2022-11-05T18:01:33.992Z,100881.91
2022-11-05T18:04:08.347Z,100878.94
2022-11-05T18:06:36.729Z,100892.41
2022-11-05T18:09:04.201Z,100888.69
2022-11-05T18:11:31.902Z,100895.84
2022-11-05T18:13:59.368Z,100886.06
2022-11-05T18:16:26.817Z,100889.69
2022-11-05T18:18:55.625Z,100896.19
2022-11-05T18:21:23.082Z,100873.22
2022-11-05T18:23:50.545Z,100880.34
2022-11-05T18:26:18.178Z,100876.78
2022-11-05T18:28:45.631Z,100872.34
2022-11-05T18:31:17.888Z,100868.03
2022-11-05T18:33:45.904Z,100879.09
2022-11-05T18:36:18.749Z,100883.78
2022-11-05T18:38:46.211Z,100881.56
2022-11-05T18:41:13.713Z,100879.09
2022-11-05T18:43:41.193Z,100876.94
2022-11-05T18:46:08.819Z,100880.88
2022-11-05T18:48:36.431Z,100879.31
2022-11-05T18:51:07.540Z,100879.16
2022-11-05T18:53:36.339Z,100880.84
2022-11-05T18:56:07.489Z,100870.97
2022-11-05T18:58:35.028Z,100877.06
2022-11-05T19:01:06.466Z,100863.22
2022-11-05T19:03:34.467Z,100864.50
2022-11-05T19:06:03.243Z,100866.72
2022-11-05T19:08:31.717Z,100857.53
2022-11-05T19:11:00.705Z,100861.88
2022-11-05T19:13:28.172Z,100856.25
2022-11-05T19:15:55.619Z,100850.28
2022-11-05T19:18:23.112Z,100849.47
2022-11-05T19:20:50.550Z,100836.19
2022-11-05T19:23:18.028Z,100854.34
2022-11-05T19:25:45.531Z,100869.78
2022-11-05T19:28:14.652Z,100871.69
2022-11-05T19:30:42.691Z,100871.00
2022-11-05T19:33:10.340Z,100857.47
2022-11-05T19:35:41.385Z,100864.03
2022-11-05T19:38:09.364Z,100874.91
2022-11-05T19:40:37.527Z,100864.53
2022-11-05T19:43:05.043Z,100865.88
2022-11-05T19:45:49.063Z,100850.03
2022-11-05T19:48:19.844Z,100855.53
2022-11-05T19:50:47.822Z,100854.13
2022-11-05T19:53:15.308Z,100850.53
2022-11-05T19:55:44.117Z,100861.50
2022-11-05T19:58:12.144Z,100850.19
2022-11-05T20:00:41.211Z,100852.78
2022-11-05T20:03:08.728Z,100846.72
2022-11-05T20:05:36.219Z,100847.81
2022-11-05T20:08:03.694Z,100863.41
2022-11-05T20:10:31.148Z,100859.00
2022-11-05T20:12:58.614Z,100854.13
2022-11-05T20:15:26.060Z,100852.50
2022-11-05T20:17:55.001Z,100835.50
2022-11-05T20:20:22.586Z,100837.94
2022-11-05T20:22:51.414Z,100827.66
2022-11-05T20:25:18.986Z,100829.94
2022-11-05T20:27:46.466Z,100836.38
2022-11-05T20:30:14.013Z,100831.63
2022-11-05T20:32:41.468Z,100846.38
2022-11-05T20:35:10.945Z,100830.47
2022-11-05T20:37:38.425Z,100845.06
2022-11-05T20:40:06.504Z,100839.47
2022-11-05T20:42:33.983Z,100840.28
2022-11-05T20:45:01.644Z,100827.06
2022-11-05T20:47:29.131Z,100836.59
2022-11-05T20:49:58.323Z,100825.19
2022-11-05T20:52:27.196Z,100835.72
2022-11-05T20:54:54.687Z,100842.88
2022-11-05T20:57:22.314Z,100839.47
2022-11-05T20:59:49.753Z,100839.28
2022-11-05T21:02:17.445Z,100856.28
2022-11-05T21:04:45.192Z,100851.69
2022-11-05T21:07:12.675Z,100847.34
2022-11-05T21:09:41.488Z,100829.25
2022-11-05T21:12:11.802Z,100819.41
2022-11-05T21:14:39.447Z,100825.75
2022-11-05T21:17:07.326Z,100806.44
2022-11-05T21:19:35.177Z,100824.66
2022-11-05T21:22:02.659Z,100821.34
2022-11-05T21:24:30.130Z,100817.66
2022-11-05T21:26:59.022Z,100842.31
2022-11-05T21:29:26.576Z,100834.53
2022-11-05T21:31:54.171Z,100820.59
2022-11-05T21:34:21.681Z,100815.59
2022-11-05T21:36:50.249Z,100820.88
2022-11-05T21:39:17.939Z,100819.91
2022-11-05T21:41:45.407Z,100818.88
2022-11-05T21:44:14.202Z,100817.34
2022-11-05T21:46:41.648Z,100826.53
2022-11-05T21:49:09.374Z,100806.84
2022-11-05T21:51:54.240Z,100830.44
2022-11-05T21:54:39.156Z,100825.50
2022-11-05T21:57:24.466Z,100823.75
2022-11-05T21:59:55.189Z,100825.38
2022-11-05T22:02:24.288Z,100819.03
2022-11-05T22:04:54.380Z,100813.22
2022-11-05T22:07:23.671Z,100809.78
2022-11-05T22:09:51.512Z,100809.06
2022-11-05T22:12:19.294Z,100803.00
2022-11-05T22:14:47.007Z,100793.28
2022-11-05T22:17:16.457Z,100783.19
2022-11-05T22:19:44.207Z,100789.06
2022-11-05T22:22:12.363Z,100764.91
2022-11-05T22:24:40.416Z,100779.28
2022-11-05T22:27:09.550Z,100756.16
2022-11-05T22:29:37.982Z,100764.84
2022-11-05T22:32:05.862Z,100780.06
2022-11-05T22:34:34.671Z,100780.75
2022-11-05T22:37:02.132Z,100773.75
2022-11-05T22:39:29.595Z,100778.91
2022-11-05T22:41:57.549Z,100766.59
2022-11-05T22:44:25.276Z,100759.31
2022-11-05T22:46:52.763Z,100762.53
2022-11-05T22:49:20.283Z,100759.53
2022-11-05T22:51:50.330Z,100756.31
2022-11-05T22:54:17.809Z,100748.72
2022-11-05T22:56:45.334Z,100747.53
2022-11-05T22:59:13.474Z,100765.25
2022-11-05T23:01:42.503Z,100753.00
2022-11-05T23:04:10.060Z,100765.72
2022-11-05T23:06:55.244Z,100750.63
2022-11-05T23:09:42.432Z,100740.34
2022-11-05T23:12:10.665Z,100753.75
2022-11-05T23:14:38.150Z,100761.38
2022-11-05T23:17:23.127Z,100728.13
2022-11-05T23:20:07.895Z,100749.94
2022-11-05T23:22:52.571Z,100746.00
2022-11-05T23:25:21.954Z,100738.69
2022-11-05T23:27:50.205Z,100739.63
2022-11-05T23:30:18.831Z,100732.66
2022-11-05T23:32:45.320Z,100727.28
2022-11-05T23:35:12.896Z,100721.34
2022-11-05T23:37:58.043Z,100724.84
2022-11-05T23:40:27.651Z,100709.63
2022-11-05T23:43:12.808Z,100726.59
2022-11-05T23:45:58.220Z,100707.16
2022-11-05T23:48:27.719Z,100729.91
2022-11-05T23:50:58.130Z,100730.00
2022-11-05T23:53:25.728Z,100715.53
2022-11-05T23:55:54.557Z,100718.09
2022-11-05T23:58:22.018Z,100721.50
